createdAt,value
2018-04-16T00:00:06.499Z,60.27
2018-04-16T00:01:05.468Z,60.64
2018-04-16T00:03:01.433Z,60.46
2018-04-16T00:04:01.917Z,60.36
2018-04-16T00:06:00.857Z,60.55
2018-04-16T00:06:59.328Z,60.46
2018-04-16T00:08:55.808Z,59.98
2018-04-16T00:09:56.291Z,60.17
2018-04-16T00:11:54.284Z,60.17
2018-04-16T00:12:53.402Z,59.98
2018-04-16T00:14:49.380Z,58.99
2018-04-16T00:15:49.387Z,58.90
2018-04-16T00:17:46.248Z,59.09
2018-04-16T00:18:45.327Z,58.90
2018-04-16T00:20:41.773Z,58.99
2018-04-16T00:21:41.253Z,58.70
2018-04-16T00:23:38.700Z,58.90
2018-04-16T00:24:37.231Z,58.80
2018-04-16T00:26:33.663Z,58.90
2018-04-16T00:27:33.675Z,58.99
2018-04-16T00:29:29.629Z,58.70
2018-04-16T00:30:29.064Z,59.09
2018-04-16T00:32:26.543Z,59.28
2018-04-16T00:33:25.539Z,58.61
2018-04-16T00:35:20.969Z,58.70
2018-04-16T00:36:20.958Z,58.51
2018-04-16T00:38:17.911Z,58.70
2018-04-16T00:39:16.918Z,58.33
2018-04-16T00:41:13.387Z,58.51
2018-04-16T00:42:12.879Z,58.51
2018-04-16T00:44:08.866Z,58.61
2018-04-16T00:45:08.835Z,58.61
2018-04-16T00:47:05.788Z,58.61
2018-04-16T00:48:04.790Z,58.61
2018-04-16T00:50:02.244Z,58.80
2018-04-16T00:51:00.739Z,58.70
2018-04-16T00:52:57.690Z,58.42
2018-04-16T00:53:56.674Z,58.90
2018-04-16T00:55:53.130Z,58.70
2018-04-16T00:56:52.604Z,58.70
2018-04-16T00:58:51.061Z,58.04
2018-04-16T00:59:51.082Z,58.51
2018-04-16T01:01:46.497Z,58.33
2018-04-16T01:04:02.460Z,58.33
2018-04-16T01:05:02.503Z,58.42
2018-04-16T01:07:00.396Z,58.42
2018-04-16T01:08:00.400Z,58.51
2018-04-16T01:09:58.877Z,58.51
2018-04-16T01:10:58.857Z,58.70
2018-04-16T01:12:54.813Z,58.42
2018-04-16T01:13:54.279Z,58.42
2018-04-16T01:15:50.744Z,58.29
2018-04-16T01:16:50.750Z,58.20
2018-04-16T01:18:46.691Z,58.58
2018-04-16T01:19:47.685Z,58.77
2018-04-16T01:21:42.119Z,58.39
2018-04-16T01:22:42.611Z,58.68
2018-04-16T01:24:38.044Z,58.01
2018-04-16T01:25:38.557Z,57.72
2018-04-16T01:27:34.506Z,57.79
2018-04-16T01:28:33.984Z,57.70
2018-04-16T01:30:31.968Z,57.70
2018-04-16T01:31:32.453Z,57.53
2018-04-16T01:33:29.885Z,57.82
2018-04-16T01:34:30.407Z,57.89
2018-04-16T01:36:25.850Z,57.79
2018-04-16T01:37:25.839Z,57.70
2018-04-16T01:39:23.819Z,57.70
2018-04-16T01:40:23.752Z,57.98
2018-04-16T01:42:20.202Z,58.17
2018-04-16T01:43:20.209Z,57.41
2018-04-16T01:45:15.687Z,58.07
2018-04-16T01:46:15.635Z,57.98
2018-04-16T01:48:11.609Z,58.07
2018-04-16T01:49:12.079Z,58.07
2018-04-16T01:51:07.549Z,57.60
2018-04-16T01:52:07.524Z,57.31
2018-04-16T01:54:04.502Z,57.98
2018-04-16T01:55:03.490Z,57.79
2018-04-16T01:56:59.950Z,57.98
2018-04-16T01:57:59.419Z,57.79
2018-04-16T01:59:55.883Z,57.22
2018-04-16T02:00:55.893Z,57.31
2018-04-16T02:02:51.832Z,57.98
2018-04-16T02:03:51.312Z,57.95
2018-04-16T02:05:47.255Z,57.48
2018-04-16T02:06:47.758Z,57.95
2018-04-16T02:08:43.728Z,57.76
2018-04-16T02:09:43.707Z,57.95
2018-04-16T02:11:39.603Z,57.95
2018-04-16T02:12:39.619Z,57.95
2018-04-16T02:14:35.570Z,58.04
2018-04-16T02:15:35.046Z,57.76
2018-04-16T02:17:32.480Z,57.95
2018-04-16T02:18:31.486Z,57.95
2018-04-16T02:20:27.946Z,57.57
2018-04-16T02:21:27.938Z,57.95
2018-04-16T02:23:23.417Z,57.76
2018-04-16T02:24:24.411Z,57.67
2018-04-16T02:26:19.360Z,57.76
2018-04-16T02:27:18.819Z,57.57
2018-04-16T02:29:15.300Z,57.57
2018-04-16T02:30:15.284Z,58.14
2018-04-16T02:32:10.742Z,57.95
2018-04-16T02:33:10.711Z,57.38
2018-04-16T02:35:10.687Z,57.19
2018-04-16T02:36:08.798Z,57.28
2018-04-16T02:38:05.760Z,57.67
2018-04-16T02:39:05.256Z,57.57
2018-04-16T02:41:00.710Z,57.57
2018-04-16T02:42:01.220Z,57.67
2018-04-16T02:43:57.169Z,57.28
2018-04-16T02:44:56.635Z,57.41
2018-04-16T02:46:52.601Z,57.19
2018-04-16T02:47:52.576Z,57.28
2018-04-16T02:49:49.036Z,56.90
2018-04-16T02:50:49.027Z,57.00
2018-04-16T02:52:45.972Z,56.90
2018-04-16T02:53:44.472Z,57.03
2018-04-16T02:55:42.910Z,57.00
2018-04-16T02:56:40.448Z,57.48
2018-04-16T02:58:36.404Z,57.67
2018-04-16T02:59:36.898Z,57.57
2018-04-16T03:01:32.819Z,57.67
2018-04-16T03:02:32.309Z,57.28
2018-04-16T03:04:30.766Z,57.48
2018-04-16T03:05:30.757Z,57.57
2018-04-16T03:07:27.210Z,57.86
2018-04-16T03:08:26.218Z,57.38
2018-04-16T03:10:22.144Z,57.28
2018-04-16T03:11:22.148Z,57.28
2018-04-16T03:13:18.622Z,57.19
2018-04-16T03:14:18.632Z,57.48
2018-04-16T03:16:15.588Z,57.28
2018-04-16T03:17:14.555Z,57.48
2018-04-16T03:19:10.493Z,57.76
2018-04-16T03:20:10.492Z,57.86
2018-04-16T03:22:06.389Z,57.67
2018-04-16T03:23:06.389Z,57.48
2018-04-16T03:25:02.855Z,57.86
2018-04-16T03:26:02.344Z,57.28
2018-04-16T03:27:58.307Z,57.57
2018-04-16T03:28:57.767Z,57.28
2018-04-16T03:30:54.225Z,57.28
2018-04-16T03:31:53.708Z,57.00
2018-04-16T03:33:50.180Z,57.09
2018-04-16T03:34:49.673Z,57.00
2018-04-16T03:36:45.645Z,56.71
2018-04-16T03:37:45.593Z,57.19
2018-04-16T03:39:41.569Z,56.81
2018-04-16T03:40:43.051Z,56.71
2018-04-16T03:42:37.498Z,56.90
2018-04-16T03:43:37.498Z,56.84
2018-04-16T03:45:33.487Z,56.93
2018-04-16T03:46:34.939Z,56.93
2018-04-16T03:48:31.416Z,56.74
2018-04-16T03:49:32.404Z,56.84
2018-04-16T03:51:27.870Z,56.65
2018-04-16T03:52:27.338Z,56.84
2018-04-16T03:54:23.794Z,57.12
2018-04-16T03:55:23.275Z,56.65
2018-04-16T03:57:21.235Z,56.93
2018-04-16T03:58:19.267Z,57.12
2018-04-16T04:00:18.713Z,56.84
2018-04-16T04:01:17.384Z,56.74
2018-04-16T04:03:13.789Z,56.93
2018-04-16T04:04:13.272Z,56.84
2018-04-16T04:06:09.754Z,56.93
2018-04-16T04:07:10.729Z,56.65
2018-04-16T04:09:06.263Z,56.93
2018-04-16T04:10:05.130Z,56.65
2018-04-16T04:12:02.098Z,56.74
2018-04-16T04:13:01.606Z,56.93
2018-04-16T04:14:58.045Z,57.12
2018-04-16T04:15:58.535Z,57.12
2018-04-16T04:17:53.482Z,56.84
2018-04-16T04:18:53.504Z,56.84
2018-04-16T04:20:48.946Z,57.03
2018-04-16T04:21:48.929Z,56.93
2018-04-16T04:23:46.367Z,57.12
2018-04-16T04:24:44.885Z,57.03
2018-04-16T04:26:43.824Z,56.74
2018-04-16T04:27:43.331Z,57.22
2018-04-16T04:29:39.280Z,57.12
2018-04-16T04:30:39.278Z,57.31
2018-04-16T04:32:35.725Z,57.12
2018-04-16T04:33:34.698Z,57.12
2018-04-16T04:35:32.165Z,57.12
2018-04-16T04:36:31.633Z,57.41
2018-04-16T04:38:28.100Z,57.31
2018-04-16T04:39:29.093Z,57.31
2018-04-16T04:41:24.045Z,57.24
2018-04-16T04:42:23.509Z,57.82
2018-04-16T04:44:20.468Z,57.82
2018-04-16T04:45:19.474Z,58.29
2018-04-16T04:47:15.413Z,57.92
2018-04-16T04:49:31.357Z,57.92
2018-04-16T04:50:31.835Z,58.20
2018-04-16T04:52:27.291Z,57.72
2018-04-16T04:53:27.279Z,57.82
2018-04-16T04:55:23.737Z,57.82
2018-04-16T04:56:23.228Z,58.11
2018-04-16T04:58:19.692Z,57.92
2018-04-16T04:59:19.675Z,58.77
2018-04-16T05:01:17.629Z,58.11
2018-04-16T05:02:16.117Z,57.63
2018-04-16T05:04:12.117Z,57.82
2018-04-16T05:05:12.057Z,58.39
2018-04-16T05:07:08.039Z,58.48
2018-04-16T05:08:08.504Z,58.58
2018-04-16T05:10:05.443Z,58.48
2018-04-16T05:11:03.944Z,58.97
2018-04-16T05:12:59.918Z,58.97
2018-04-16T05:14:01.390Z,58.80
2018-04-16T05:15:56.321Z,58.61
2018-04-16T05:16:55.832Z,58.51
2018-04-16T05:18:51.808Z,58.80
2018-04-16T05:19:51.748Z,58.70
2018-04-16T05:21:48.191Z,58.70
2018-04-16T05:22:49.179Z,58.99
2018-04-16T05:24:44.151Z,58.80
2018-04-16T05:25:44.148Z,58.80
2018-04-16T05:27:40.096Z,59.02
2018-04-16T05:28:39.584Z,59.12
2018-04-16T05:30:35.572Z,59.31
2018-04-16T05:31:35.518Z,59.50
2018-04-16T05:33:31.494Z,59.59
2018-04-16T05:34:31.462Z,59.41
2018-04-16T05:36:28.418Z,60.46
2018-04-16T05:37:27.428Z,60.58
2018-04-16T05:39:23.382Z,62.21
2018-04-16T05:40:23.350Z,62.21
2018-04-16T05:42:19.319Z,63.83
2018-04-16T05:43:20.216Z,62.90
2018-04-16T05:45:16.238Z,64.05
2018-04-16T05:46:15.236Z,64.25
2018-04-16T05:48:14.187Z,64.53
2018-04-16T05:49:14.221Z,63.76
2018-04-16T05:51:11.315Z,63.00
2018-04-16T05:52:11.813Z,63.48
2018-04-16T05:54:07.222Z,62.81
2018-04-16T05:55:08.739Z,62.62
2018-04-16T05:57:03.225Z,63.86
2018-04-16T05:58:03.695Z,63.89
2018-04-16T05:59:59.112Z,63.13
2018-04-16T06:00:59.116Z,63.80
2018-04-16T06:02:55.090Z,65.04
2018-04-16T06:05:11.027Z,65.71
2018-04-16T06:06:11.032Z,65.71
2018-04-16T06:08:06.979Z,66.28
2018-04-16T06:09:06.985Z,65.42
2018-04-16T06:11:02.954Z,65.71
2018-04-16T06:12:02.948Z,65.52
2018-04-16T06:13:59.393Z,65.52
2018-04-16T06:14:59.407Z,66.28
2018-04-16T06:16:54.864Z,66.76
2018-04-16T06:17:54.828Z,66.28
2018-04-16T06:19:50.788Z,66.76
2018-04-16T06:20:51.279Z,65.90
2018-04-16T06:22:48.758Z,66.41
2018-04-16T06:23:49.268Z,66.51
2018-04-16T06:25:47.692Z,66.70
2018-04-16T06:26:47.186Z,66.80
2018-04-16T06:28:42.678Z,66.74
2018-04-16T06:29:44.147Z,66.74
2018-04-16T06:31:40.553Z,67.02
2018-04-16T06:32:40.538Z,66.74
2018-04-16T06:34:36.473Z,66.64
2018-04-16T06:35:37.003Z,66.54
2018-04-16T06:37:34.440Z,66.41
2018-04-16T06:38:34.444Z,66.41
2018-04-16T06:40:32.943Z,66.64
2018-04-16T06:41:33.403Z,66.45
2018-04-16T06:43:31.983Z,66.16
2018-04-16T06:44:31.486Z,66.64
2018-04-16T06:46:29.559Z,66.54
2018-04-16T06:47:28.565Z,66.64
2018-04-16T06:49:25.952Z,66.83
2018-04-16T06:50:24.504Z,67.11
2018-04-16T06:52:20.424Z,67.50
2018-04-16T06:53:20.436Z,68.07
2018-04-16T06:55:16.399Z,67.69
2018-04-16T06:56:16.440Z,67.69
2018-04-16T06:58:14.419Z,67.91
2018-04-16T06:59:14.373Z,68.17
2018-04-16T07:01:10.325Z,67.50
2018-04-16T07:02:11.810Z,67.60
2018-04-16T07:04:06.807Z,67.69
2018-04-16T07:05:06.755Z,66.74
2018-04-16T07:07:02.222Z,66.67
2018-04-16T07:08:03.143Z,66.86
2018-04-16T07:09:58.180Z,67.11
2018-04-16T07:10:58.672Z,67.44
2018-04-16T07:12:55.097Z,67.25
2018-04-16T07:13:55.107Z,66.58
2018-04-16T07:15:50.621Z,67.72
2018-04-16T07:16:50.568Z,67.72
2018-04-16T07:18:46.540Z,67.54
2018-04-16T07:19:45.973Z,68.21
2018-04-16T07:21:42.936Z,68.30
2018-04-16T07:22:41.911Z,68.59
2018-04-16T07:24:37.891Z,68.49
2018-04-16T07:25:37.887Z,68.78
2018-04-16T07:27:33.883Z,68.68
2018-04-16T07:28:34.357Z,69.29
2018-04-16T07:30:30.298Z,68.43
2018-04-16T07:31:29.797Z,68.87
2018-04-16T07:33:25.733Z,68.68
2018-04-16T07:34:26.255Z,69.07
2018-04-16T07:36:22.217Z,69.87
2018-04-16T07:37:21.715Z,69.96
2018-04-16T07:39:18.157Z,69.68
2018-04-16T07:40:18.152Z,70.03
2018-04-16T07:42:13.638Z,70.12
2018-04-16T07:43:14.601Z,69.74
2018-04-16T07:45:10.082Z,70.35
2018-04-16T07:46:09.549Z,70.64
2018-04-16T07:48:05.560Z,70.92
2018-04-16T07:49:05.660Z,70.83
2018-04-16T07:51:01.500Z,71.21
2018-04-16T07:52:01.988Z,70.79
2018-04-16T07:53:57.992Z,71.40
2018-04-16T07:54:57.428Z,71.11
2018-04-16T07:56:53.402Z,70.73
2018-04-16T07:57:53.390Z,71.53
2018-04-16T07:59:49.858Z,72.01
2018-04-16T08:00:49.319Z,72.30
2018-04-16T08:02:45.815Z,72.11
2018-04-16T08:03:45.273Z,72.39
2018-04-16T08:05:41.247Z,72.20
2018-04-16T08:06:41.252Z,71.92
2018-04-16T08:08:38.192Z,73.07
2018-04-16T08:09:37.713Z,72.78
2018-04-16T08:11:33.629Z,72.49
2018-04-16T08:12:33.647Z,72.63
2018-04-16T08:14:29.077Z,72.88
2018-04-16T08:15:30.575Z,72.88
2018-04-16T08:17:28.002Z,72.68
2018-04-16T08:18:27.036Z,72.78
2018-04-16T08:20:24.975Z,72.88
2018-04-16T08:21:25.975Z,72.97
2018-04-16T08:23:23.096Z,73.07
2018-04-16T08:24:23.091Z,72.78
2018-04-16T08:26:19.079Z,72.78
2018-04-16T08:27:19.036Z,72.68
2018-04-16T08:29:15.023Z,72.88
2018-04-16T08:30:14.954Z,72.78
2018-04-16T08:32:10.934Z,72.97
2018-04-16T08:33:11.970Z,73.45
2018-04-16T08:35:06.908Z,72.49
2018-04-16T08:36:06.873Z,72.78
2018-04-16T08:38:03.351Z,72.45
2018-04-16T08:39:03.342Z,72.36
2018-04-16T08:41:04.331Z,72.74
2018-04-16T08:42:03.524Z,72.27
2018-04-16T08:44:04.196Z,72.74
2018-04-16T08:45:02.775Z,72.97
2018-04-16T08:47:01.223Z,72.97
2018-04-16T08:47:59.352Z,72.88
2018-04-16T08:49:59.801Z,73.03
2018-04-16T08:50:59.788Z,73.07
2018-04-16T08:52:57.794Z,72.88
2018-04-16T08:53:57.774Z,73.07
2018-04-16T08:55:55.780Z,72.68
2018-04-16T08:56:55.737Z,73.39
2018-04-16T08:58:52.208Z,74.26
2018-04-16T08:59:53.188Z,74.35
2018-04-16T09:01:49.729Z,72.97
2018-04-16T09:02:49.746Z,72.78
2018-04-16T09:04:48.214Z,73.26
2018-04-16T09:05:47.677Z,73.68
2018-04-16T09:07:43.691Z,72.72
2018-04-16T09:08:44.138Z,73.20
2018-04-16T09:10:47.596Z,73.10
2018-04-16T09:13:08.062Z,73.87
2018-04-16T09:14:08.032Z,73.45
2018-04-16T09:16:06.534Z,73.45
2018-04-16T09:17:06.492Z,74.60
2018-04-16T09:19:03.454Z,73.65
2018-04-16T09:20:01.900Z,74.16
2018-04-16T09:21:57.979Z,74.26
2018-04-16T09:22:57.866Z,74.26
2018-04-16T09:24:53.828Z,73.55
2018-04-16T09:25:53.823Z,73.20
2018-04-16T09:27:49.773Z,74.06
2018-04-16T09:28:49.805Z,74.16
2018-04-16T09:30:45.741Z,74.26
2018-04-16T09:31:45.727Z,74.26
2018-04-16T09:33:43.796Z,74.64
2018-04-16T09:34:44.691Z,74.06
2018-04-16T09:36:41.818Z,74.44
2018-04-16T09:37:42.774Z,74.48
2018-04-16T09:39:38.795Z,75.35
2018-04-16T09:40:39.238Z,74.77
2018-04-16T09:42:34.705Z,74.48
2018-04-16T09:43:34.701Z,74.58
2018-04-16T09:45:37.171Z,74.68
2018-04-16T09:46:35.189Z,74.96
2018-04-16T09:48:34.121Z,74.96
2018-04-16T09:49:33.232Z,74.26
2018-04-16T09:51:29.191Z,75.06
2018-04-16T09:52:29.697Z,75.06
2018-04-16T09:54:25.661Z,75.54
2018-04-16T09:55:25.344Z,75.06
2018-04-16T09:57:24.305Z,74.77
2018-04-16T09:58:25.347Z,75.73
2018-04-16T10:00:20.405Z,75.35
2018-04-16T10:01:19.424Z,74.10
2018-04-16T10:03:16.823Z,74.58
2018-04-16T10:04:15.845Z,74.48
2018-04-16T10:06:11.792Z,74.73
2018-04-16T10:07:11.276Z,75.21
2018-04-16T10:09:07.751Z,74.83
2018-04-16T10:10:07.751Z,74.73
2018-04-16T10:12:03.149Z,74.44
2018-04-16T10:13:04.686Z,75.50
2018-04-16T10:14:59.132Z,74.83
2018-04-16T10:16:00.610Z,74.73
2018-04-16T10:17:55.657Z,74.68
2018-04-16T10:18:56.563Z,74.96
2018-04-16T10:20:52.024Z,75.06
2018-04-16T10:21:51.015Z,74.77
2018-04-16T10:23:47.002Z,74.73
2018-04-16T10:24:47.477Z,75.60
2018-04-16T10:26:42.961Z,75.60
2018-04-16T10:27:42.935Z,74.73
2018-04-16T10:29:39.404Z,74.96
2018-04-16T10:30:39.401Z,76.40
2018-04-16T10:32:34.848Z,75.54
2018-04-16T10:33:34.851Z,74.73
2018-04-16T10:35:30.801Z,75.60
2018-04-16T10:36:29.296Z,75.60
2018-04-16T10:38:25.763Z,75.31
2018-04-16T10:39:23.743Z,75.60
2018-04-16T10:41:28.215Z,75.21
2018-04-16T10:42:28.228Z,75.50
2018-04-16T10:44:23.702Z,75.98
2018-04-16T10:47:00.162Z,75.50
2018-04-16T10:49:16.627Z,75.40
2018-04-16T10:51:33.577Z,75.31
2018-04-16T10:53:48.580Z,74.73
2018-04-16T10:54:48.554Z,75.31
2018-04-16T10:57:00.003Z,75.60
2018-04-16T10:58:01.504Z,75.21
2018-04-16T11:01:13.517Z,74.87
2018-04-16T11:02:16.006Z,74.96
2018-04-16T11:04:11.095Z,75.06
2018-04-16T11:06:24.100Z,74.87
2018-04-16T11:07:25.082Z,74.68
2018-04-16T11:09:20.049Z,74.68
2018-04-16T11:10:20.635Z,74.68
2018-04-16T11:12:16.504Z,75.35
2018-04-16T11:13:16.020Z,74.96
2018-04-16T11:15:11.979Z,74.96
2018-04-16T11:16:13.468Z,74.58
2018-04-16T11:18:19.919Z,74.87
2018-04-16T11:20:35.889Z,74.39
2018-04-16T11:21:34.901Z,74.10
2018-04-16T11:23:30.841Z,73.56
2018-04-16T11:24:32.379Z,74.43
2018-04-16T11:26:40.308Z,72.64
2018-04-16T11:27:39.807Z,72.06
2018-04-16T11:30:42.309Z,72.41
2018-04-16T11:32:58.581Z,72.89
2018-04-16T11:35:36.064Z,72.83
2018-04-16T11:37:52.003Z,72.54
2018-04-16T11:38:52.497Z,71.04
2018-04-16T11:40:47.434Z,70.56
2018-04-16T11:41:46.432Z,71.42
2018-04-16T11:43:42.904Z,72.25
2018-04-16T11:45:59.876Z,71.93
2018-04-16T11:46:58.846Z,72.22
2018-04-16T11:48:54.806Z,72.79
2018-04-16T11:49:54.308Z,73.27
2018-04-16T11:51:54.782Z,74.68
2018-04-16T11:52:57.260Z,74.29
2018-04-16T11:54:56.226Z,73.66
2018-04-16T11:55:56.724Z,73.85
2018-04-16T11:57:52.179Z,73.85
2018-04-16T12:00:08.148Z,71.93
2018-04-16T12:01:07.642Z,71.06
2018-04-16T12:03:07.103Z,72.22
2018-04-16T12:04:05.586Z,71.93
2018-04-16T12:06:09.049Z,71.51
2018-04-16T12:07:07.042Z,71.12
2018-04-16T12:10:47.639Z,72.18
2018-04-16T12:11:38.114Z,72.47
2018-04-16T12:13:35.848Z,72.47
2018-04-16T12:14:37.336Z,72.37
2018-04-16T12:17:16.303Z,72.28
2018-04-16T12:18:14.327Z,72.02
2018-04-16T12:20:09.277Z,71.19
2018-04-16T12:21:09.794Z,71.48
2018-04-16T12:23:15.778Z,67.10
2018-04-16T12:25:34.701Z,62.93
2018-04-16T12:26:32.211Z,63.06
2018-04-16T12:28:29.667Z,62.64
2018-04-16T12:29:28.661Z,62.68
2018-04-16T12:32:51.719Z,61.26
2018-04-16T12:33:49.506Z,60.21
2018-04-16T12:35:45.462Z,61.23
2018-04-16T12:36:45.970Z,62.51
2018-04-16T12:38:43.958Z,61.55
2018-04-16T12:39:43.391Z,62.32
2018-04-16T12:41:39.884Z,61.07
2018-04-16T12:45:52.476Z,64.79
2018-04-16T12:46:52.957Z,65.08
2018-04-16T12:48:48.190Z,65.46
2018-04-16T12:49:48.682Z,63.83
2018-04-16T12:51:42.156Z,62.29
2018-04-16T12:53:57.621Z,61.71
2018-04-16T12:54:59.111Z,62.29
2018-04-16T12:58:30.220Z,62.80
2018-04-16T12:59:31.160Z,62.96
2018-04-16T13:01:25.409Z,63.83
2018-04-16T13:02:26.938Z,64.69
2018-04-16T13:04:21.381Z,65.46
2018-04-16T13:05:21.378Z,64.50
2018-04-16T13:07:17.368Z,62.96
2018-04-16T13:09:44.827Z,62.77
2018-04-16T13:12:02.320Z,62.00
2018-04-16T13:13:03.264Z,62.00
2018-04-16T13:14:58.263Z,61.07
2018-04-16T13:15:58.263Z,59.15
2018-04-16T13:17:54.720Z,58.92
2018-04-16T13:18:54.739Z,58.83
2018-04-16T13:20:50.708Z,60.08
2018-04-16T13:21:50.244Z,60.37
2018-04-16T13:23:46.248Z,61.81
2018-04-16T13:24:47.737Z,63.06
2018-04-16T13:26:42.674Z,65.37
2018-04-16T13:27:42.169Z,65.53
2018-04-16T13:29:38.095Z,64.40
2018-04-16T13:30:38.102Z,64.79
2018-04-16T13:32:35.063Z,62.58
2018-04-16T13:33:35.054Z,63.83
2018-04-16T13:35:30.057Z,58.76
2018-04-16T13:36:30.562Z,55.46
2018-04-16T13:38:26.512Z,57.29
2018-04-16T13:39:26.501Z,57.97
2018-04-16T13:41:24.456Z,59.69
2018-04-16T13:42:23.976Z,60.91
2018-04-16T13:44:21.391Z,61.58
2018-04-16T13:45:19.898Z,62.45
2018-04-16T13:47:16.861Z,64.09
2018-04-16T13:49:32.451Z,64.28
2018-04-16T13:50:31.934Z,62.93
2018-04-16T13:52:29.903Z,62.38
2018-04-16T13:53:29.905Z,60.56
2018-04-16T13:55:26.796Z,58.18
2018-04-16T13:56:25.718Z,56.65
2018-04-16T13:58:22.732Z,53.28
2018-04-16T13:59:22.689Z,52.89
2018-04-16T14:01:19.669Z,52.99
2018-04-16T14:04:19.634Z,52.61
2018-04-16T14:05:20.134Z,53.09
2018-04-16T14:07:15.129Z,52.70
2018-04-16T14:08:15.112Z,52.51
2018-04-16T14:10:11.584Z,53.78
2018-04-16T14:12:31.540Z,52.61
2018-04-16T14:13:31.578Z,52.70
2018-04-16T14:15:30.520Z,54.34
2018-04-16T14:16:29.637Z,53.74
2018-04-16T14:18:26.104Z,54.02
2018-04-16T14:19:27.116Z,54.69
2018-04-16T14:21:24.078Z,54.99
2018-04-16T14:23:38.065Z,55.08
2018-04-16T14:24:38.046Z,55.18
2018-04-16T14:26:34.014Z,55.18
2018-04-16T14:27:35.005Z,55.18
2018-04-16T14:29:29.423Z,52.03
2018-04-16T14:30:30.973Z,51.84
2018-04-16T14:32:29.913Z,51.43
2018-04-16T14:33:31.394Z,49.02
2018-04-16T14:35:25.860Z,49.51
2018-04-16T14:37:54.811Z,49.15
2018-04-16T14:38:51.810Z,49.43
2018-04-16T14:40:46.806Z,47.22
2018-04-16T14:41:47.332Z,47.51
2018-04-16T14:43:42.264Z,46.81
2018-04-16T14:44:43.290Z,46.43
2018-04-16T14:46:38.226Z,48.25
2018-04-16T14:47:39.217Z,48.07
2018-04-16T14:49:38.142Z,48.35
2018-04-16T14:50:39.692Z,47.77
2018-04-16T14:52:43.096Z,47.39
2018-04-16T14:53:44.096Z,48.16
2018-04-16T14:55:46.598Z,47.77
2018-04-16T14:56:48.665Z,46.81
2018-04-16T14:58:44.691Z,46.72
2018-04-16T14:59:46.570Z,46.91
2018-04-16T15:01:41.628Z,47.08
2018-04-16T15:02:41.129Z,47.17
2018-04-16T15:04:36.602Z,46.43
2018-04-16T15:05:36.608Z,45.66
2018-04-16T15:07:32.579Z,44.68
2018-04-16T15:08:32.542Z,44.58
2018-04-16T15:10:29.028Z,45.15
2018-04-16T15:12:47.478Z,45.37
2018-04-16T15:13:46.624Z,45.85
2018-04-16T15:15:43.083Z,46.43
2018-04-16T15:16:43.085Z,47.39
2018-04-16T15:18:39.529Z,47.97
2018-04-16T15:19:39.083Z,47.97
2018-04-16T15:21:34.436Z,48.83
2018-04-16T15:22:34.488Z,50.08
2018-04-16T15:24:32.444Z,49.12
2018-04-16T15:25:32.423Z,49.12
2018-04-16T15:27:28.374Z,50.08
2018-04-16T15:28:28.898Z,49.79
2018-04-16T15:30:24.332Z,49.02
2018-04-16T15:31:24.328Z,49.12
2018-04-16T15:33:20.818Z,49.31
2018-04-16T15:34:20.280Z,49.31
2018-04-16T15:36:16.757Z,49.22
2018-04-16T15:37:16.259Z,49.41
2018-04-16T15:39:12.732Z,49.31
2018-04-16T15:40:12.742Z,48.16
2018-04-16T15:42:08.168Z,48.81
2018-04-16T15:43:08.661Z,48.71
2018-04-16T15:45:04.123Z,50.25
2018-04-16T15:46:04.623Z,50.25
2018-04-16T15:48:25.137Z,49.46
2018-04-16T15:49:01.116Z,49.96
2018-04-16T15:50:59.028Z,51.09
2018-04-16T15:52:05.028Z,50.51
2018-04-16T15:53:54.010Z,51.28
2018-04-16T15:56:10.017Z,50.32
2018-04-16T15:57:11.502Z,50.13
2018-04-16T15:59:05.905Z,49.87
2018-04-16T16:00:07.441Z,49.48
2018-04-16T16:02:02.907Z,49.19
2018-04-16T16:03:01.895Z,49.19
2018-04-16T16:04:57.853Z,48.61
2018-04-16T16:05:57.835Z,48.90
2018-04-16T16:07:54.310Z,49.77
2018-04-16T16:08:53.807Z,50.82
2018-04-16T16:10:51.253Z,49.19
2018-04-16T16:11:51.254Z,49.10
2018-04-16T16:13:45.726Z,48.97
2018-04-16T16:16:01.686Z,49.26
2018-04-16T16:18:17.645Z,49.65
2018-04-16T16:19:17.647Z,50.80
2018-04-16T16:21:13.611Z,50.51
2018-04-16T16:22:13.586Z,51.11
2018-04-16T16:24:08.079Z,50.15
2018-04-16T16:25:08.030Z,49.38
2018-04-16T16:27:04.524Z,49.65
2018-04-16T16:28:04.018Z,50.13
2018-04-16T16:29:59.963Z,51.18
2018-04-16T16:31:01.508Z,50.42
2018-04-16T16:32:56.431Z,49.74
2018-04-16T16:33:56.420Z,50.13
2018-04-16T16:35:52.379Z,50.42
2018-04-16T16:36:53.374Z,51.31
2018-04-16T16:38:49.853Z,50.23
2018-04-16T16:39:49.812Z,50.99
2018-04-16T16:41:46.770Z,50.25
2018-04-16T16:42:45.761Z,50.32
2018-04-16T16:44:40.211Z,50.44
2018-04-16T16:45:40.733Z,49.74
2018-04-16T16:47:36.187Z,49.65
2018-04-16T16:48:36.176Z,50.23
2018-04-16T16:50:32.133Z,50.23
2018-04-16T16:51:32.127Z,51.09
2018-04-16T16:53:28.602Z,51.09
2018-04-16T16:54:28.090Z,51.47
2018-04-16T16:56:21.566Z,49.74
2018-04-16T16:57:21.554Z,51.28
2018-04-16T16:59:18.498Z,48.79
2018-04-16T17:00:17.496Z,49.26
2018-04-16T17:02:14.460Z,50.23
2018-04-16T17:03:14.463Z,49.65
2018-04-16T17:05:09.490Z,49.36
2018-04-16T17:06:09.946Z,50.03
2018-04-16T17:08:05.415Z,48.97
2018-04-16T17:09:05.920Z,49.93
2018-04-16T17:11:01.888Z,50.23
2018-04-16T17:12:01.855Z,51.28
2018-04-16T17:13:57.826Z,50.13
2018-04-16T17:14:57.818Z,48.79
2018-04-16T17:16:54.712Z,50.03
2018-04-16T17:20:32.292Z,50.03
2018-04-16T17:21:26.799Z,50.99
2018-04-16T17:23:21.085Z,50.32
2018-04-16T17:24:22.055Z,49.84
2018-04-16T17:26:19.035Z,49.84
2018-04-16T17:28:35.503Z,50.32
2018-04-16T17:29:33.535Z,51.06
2018-04-16T17:31:29.466Z,50.99
2018-04-16T17:32:30.397Z,51.28
2018-04-16T17:34:24.948Z,49.74
2018-04-16T17:35:24.916Z,49.74
2018-04-16T17:37:20.863Z,48.69
2018-04-16T17:38:20.877Z,50.03
2018-04-16T17:40:18.839Z,49.87
2018-04-16T17:42:33.313Z,48.61
2018-04-16T17:43:33.313Z,47.36
2018-04-16T17:45:29.769Z,47.82
2018-04-16T17:46:29.272Z,48.79
2018-04-16T17:48:24.768Z,49.36
2018-04-16T17:49:24.725Z,49.55
2018-04-16T17:51:21.615Z,50.42
2018-04-16T17:53:36.634Z,49.82
2018-04-16T17:54:36.638Z,49.72
2018-04-16T17:56:33.091Z,49.62
2018-04-16T17:57:32.607Z,49.91
2018-04-16T17:59:28.576Z,50.29
2018-04-16T18:00:28.659Z,50.29
2018-04-16T18:02:24.006Z,51.16
2018-04-16T18:03:22.980Z,51.25
2018-04-16T18:05:17.497Z,51.83
2018-04-16T18:06:18.949Z,52.40
2018-04-16T18:08:13.419Z,52.76
2018-04-16T18:09:13.420Z,53.82
2018-04-16T18:11:09.363Z,54.88
2018-04-16T18:12:09.358Z,55.16
2018-04-16T18:14:06.836Z,54.88
2018-04-16T18:15:05.334Z,54.49
2018-04-16T18:17:03.292Z,55.26
2018-04-16T18:18:01.302Z,56.51
2018-04-16T18:19:57.242Z,56.41
2018-04-16T18:20:57.765Z,57.56
2018-04-16T18:22:53.724Z,57.43
2018-04-16T18:23:53.255Z,59.45
2018-04-16T18:25:49.204Z,63.48
2018-04-16T18:26:49.712Z,62.04
2018-04-16T18:28:45.088Z,61.08
2018-04-16T18:29:45.648Z,60.03
2018-04-16T18:31:39.584Z,62.62
2018-04-16T18:32:39.554Z,63.19
2018-04-16T18:34:36.053Z,63.86
2018-04-16T18:35:35.518Z,64.72
2018-04-16T18:37:31.491Z,63.86
2018-04-16T18:38:32.006Z,63.73
2018-04-16T18:40:27.430Z,66.80
2018-04-16T18:41:28.464Z,65.84
2018-04-16T18:43:23.431Z,64.31
2018-04-16T18:44:24.912Z,67.85
2018-04-16T18:46:19.907Z,70.92
2018-04-16T18:47:19.357Z,73.61
2018-04-16T18:49:15.815Z,68.14
2018-04-16T18:50:15.265Z,70.83
2018-04-16T18:52:11.766Z,66.80
2018-04-16T18:53:11.235Z,65.84
2018-04-16T18:55:07.199Z,70.15
2018-04-16T18:56:07.190Z,69.58
2018-04-16T18:58:03.644Z,70.54
2018-04-16T18:59:03.646Z,73.99
2018-04-16T19:00:59.122Z,69.54
2018-04-16T19:02:00.101Z,68.87
2018-04-16T19:03:55.116Z,72.52
2018-04-16T19:04:56.016Z,74.52
2018-04-16T19:06:51.555Z,69.64
2018-04-16T19:07:51.049Z,73.38
2018-04-16T19:09:47.003Z,76.25
2018-04-16T19:10:47.009Z,76.64
2018-04-16T19:12:44.465Z,75.87
2018-04-16T19:13:42.944Z,74.82
2018-04-16T19:15:38.940Z,73.66
2018-04-16T19:16:38.903Z,76.82
2018-04-16T19:18:34.835Z,76.35
2018-04-16T19:19:34.817Z,78.36
2018-04-16T19:21:30.822Z,79.70
2018-04-16T19:22:31.279Z,79.66
2018-04-16T19:24:28.252Z,79.57
2018-04-16T19:25:27.768Z,79.47
2018-04-16T19:27:23.210Z,79.08
2018-04-16T19:28:23.199Z,78.13
2018-04-16T19:30:19.663Z,78.61
2018-04-16T19:31:18.668Z,79.57
2018-04-16T19:33:14.588Z,79.28
2018-04-16T19:34:14.607Z,78.03